createdAt,value
2019-04-05T00:00:43.436Z,98102.06
2019-04-05T00:03:15.239Z,98097.90
2019-04-05T00:05:46.142Z,98099.62
2019-04-05T00:08:17.216Z,98104.09
2019-04-05T00:10:48.242Z,98105.02
2019-04-05T00:13:18.658Z,98102.09
2019-04-05T00:15:49.288Z,98107.45
2019-04-05T00:18:21.394Z,98108.64
2019-04-05T00:20:56.015Z,98109.66
2019-04-05T00:23:26.440Z,98109.91
2019-04-05T00:25:57.635Z,98108.17
2019-04-05T00:28:30.329Z,98106.06
2019-04-05T00:31:00.832Z,98104.50
2019-04-05T00:33:33.420Z,98111.34
2019-04-05T00:36:06.419Z,98112.50
2019-04-05T00:38:36.875Z,98112.61
2019-04-05T00:41:09.347Z,98111.13
2019-04-05T00:43:41.386Z,98114.42
2019-04-05T00:46:12.478Z,98109.72
2019-04-05T00:48:45.475Z,98113.34
2019-04-05T00:51:19.952Z,98107.64
2019-04-05T00:53:51.511Z,98108.41
2019-04-05T00:56:24.375Z,98108.23
2019-04-05T00:58:58.397Z,98100.84
2019-04-05T01:01:30.364Z,98102.31
2019-04-05T01:04:03.467Z,98106.41
2019-04-05T01:06:36.303Z,98104.58
2019-04-05T01:09:08.172Z,98102.74
2019-04-05T01:11:39.568Z,98102.30
2019-04-05T01:14:12.646Z,98111.51
2019-04-05T01:16:45.619Z,98123.08
2019-04-05T01:19:16.515Z,98118.22
2019-04-05T01:21:49.649Z,98119.45
2019-04-05T01:24:22.592Z,98127.73
2019-04-05T01:26:56.138Z,98130.27
2019-04-05T01:29:27.640Z,98128.89
2019-04-05T01:31:58.509Z,98125.33
2019-04-05T01:34:31.537Z,98129.16
2019-04-05T01:37:02.586Z,98139.81
2019-04-05T01:39:33.700Z,98141.66
2019-04-05T01:42:04.722Z,98151.19
2019-04-05T01:44:37.065Z,98157.78
2019-04-05T01:47:09.567Z,98156.37
2019-04-05T01:49:41.870Z,98156.74
2019-04-05T01:52:13.616Z,98163.32
2019-04-05T01:54:45.591Z,98162.74
2019-04-05T01:57:18.764Z,98153.67
2019-04-05T01:59:51.785Z,98155.30
2019-04-05T02:02:24.773Z,98160.83
2019-04-05T02:04:57.749Z,98152.53
2019-04-05T02:07:30.805Z,98150.63
2019-04-05T02:10:02.043Z,98142.73
2019-04-05T02:12:33.842Z,98156.22
2019-04-05T02:15:07.534Z,98152.15
2019-04-05T02:17:41.339Z,98160.59
2019-04-05T02:20:13.128Z,98166.29
2019-04-05T02:22:45.783Z,98177.09
2019-04-05T02:25:18.835Z,98174.47
2019-04-05T02:27:50.891Z,98174.75
2019-04-05T02:30:21.994Z,98171.17
2019-04-05T02:32:54.897Z,98174.34
2019-04-05T02:35:27.881Z,98179.25
2019-04-05T02:38:01.079Z,98182.66
2019-04-05T02:40:35.535Z,98174.76
2019-04-05T02:43:08.414Z,98179.11
2019-04-05T02:45:40.732Z,98181.72
2019-04-05T02:48:14.388Z,98176.15
2019-04-05T02:50:48.558Z,98175.25
2019-04-05T02:53:20.440Z,98177.72
2019-04-05T02:55:52.215Z,98184.97
2019-04-05T02:58:23.136Z,98191.73
2019-04-05T03:00:55.191Z,98198.77
2019-04-05T03:03:26.123Z,98194.23
2019-04-05T03:05:58.184Z,98201.81
2019-04-05T03:08:31.101Z,98204.47
2019-04-05T03:11:09.165Z,98196.22
2019-04-05T03:13:45.118Z,98202.14
2019-04-05T03:16:19.415Z,98204.16
2019-04-05T03:18:55.754Z,98208.08
2019-04-05T03:21:29.633Z,98206.97
2019-04-05T03:24:04.230Z,98203.81
2019-04-05T03:26:39.450Z,98214.44
2019-04-05T03:29:10.992Z,98208.98
2019-04-05T03:31:43.195Z,98205.26
2019-04-05T03:34:17.433Z,98204.18
2019-04-05T03:36:51.619Z,98205.59
2019-04-05T03:39:21.230Z,98209.82
2019-04-05T03:41:52.793Z,98209.75
2019-04-05T03:44:25.055Z,98217.82
2019-04-05T03:46:58.026Z,98207.17
2019-04-05T03:49:31.375Z,98204.38
2019-04-05T03:52:05.311Z,98209.42
2019-04-05T03:54:37.095Z,98208.58
2019-04-05T03:57:10.453Z,98220.02
2019-04-05T03:59:43.291Z,98222.17
2019-04-05T04:02:16.672Z,98226.00
2019-04-05T04:04:50.923Z,98218.97
2019-04-05T04:07:22.405Z,98215.95
2019-04-05T04:09:55.257Z,98225.28
2019-04-05T04:12:28.510Z,98228.20
2019-04-05T04:15:13.953Z,98227.55
2019-04-05T04:17:48.342Z,98225.03
2019-04-05T04:20:36.708Z,98227.25
2019-04-05T04:23:08.566Z,98235.87
2019-04-05T04:25:40.861Z,98234.41
2019-04-05T04:28:13.338Z,98244.36
2019-04-05T04:30:46.484Z,98236.72
2019-04-05T04:33:21.141Z,98242.93
2019-04-05T04:35:53.919Z,98250.73
2019-04-05T04:38:27.223Z,98248.87
2019-04-05T04:41:00.610Z,98240.65
2019-04-05T04:43:31.453Z,98243.02
2019-04-05T04:46:04.535Z,98241.97
2019-04-05T04:48:36.861Z,98245.61
2019-04-05T04:51:09.407Z,98253.70
2019-04-05T04:53:40.765Z,98253.80
2019-04-05T04:56:13.430Z,98253.76
2019-04-05T04:58:46.708Z,98255.72
2019-04-05T05:01:20.331Z,98259.30
2019-04-05T05:03:51.700Z,98258.93
2019-04-05T05:06:23.485Z,98256.46
2019-04-05T05:08:55.591Z,98256.02
2019-04-05T05:11:28.590Z,98260.97
2019-04-05T05:13:59.550Z,98269.78
2019-04-05T05:16:32.692Z,98271.73
2019-04-05T05:19:03.673Z,98266.00
2019-04-05T05:21:34.706Z,98267.64
2019-04-05T05:24:06.128Z,98278.71
2019-04-05T05:26:36.796Z,98281.73
2019-04-05T05:29:09.900Z,98285.44
2019-04-05T05:31:42.863Z,98289.50
2019-04-05T05:34:17.594Z,98288.68
2019-04-05T05:36:48.898Z,98290.84
2019-04-05T05:39:20.371Z,98294.27
2019-04-05T05:41:51.747Z,98298.59
2019-04-05T05:44:24.644Z,98294.52
2019-04-05T05:46:57.829Z,98299.38
2019-04-05T05:49:30.741Z,98310.91
2019-04-05T05:52:04.417Z,98315.73
2019-04-05T05:54:34.805Z,98316.39
2019-04-05T05:57:06.692Z,98320.98
2019-04-05T05:59:37.124Z,98326.61
2019-04-05T06:02:09.909Z,98320.42
2019-04-05T06:04:42.946Z,98323.19
2019-04-05T06:07:14.894Z,98324.91
2019-04-05T06:09:47.817Z,98322.02
2019-04-05T06:12:19.822Z,98318.92
2019-04-05T06:14:51.904Z,98314.24
2019-04-05T06:17:22.976Z,98310.61
2019-04-05T06:19:55.839Z,98315.49
2019-04-05T06:22:26.229Z,98314.52
2019-04-05T06:24:57.985Z,98314.27
2019-04-05T06:27:28.830Z,98322.42
2019-04-05T06:30:00.990Z,98316.33
2019-04-05T06:32:33.281Z,98323.62
2019-04-05T06:35:03.941Z,98328.83
2019-04-05T06:37:35.044Z,98321.06
2019-04-05T06:40:07.127Z,98319.58
2019-04-05T06:42:37.518Z,98324.83
2019-04-05T06:45:10.053Z,98328.10
2019-04-05T06:47:43.169Z,98329.66
2019-04-05T06:50:14.427Z,98324.74
2019-04-05T06:52:46.135Z,98328.77
2019-04-05T06:55:16.940Z,98328.99
2019-04-05T06:57:49.154Z,98324.26
2019-04-05T07:00:28.373Z,98322.91
2019-04-05T07:03:01.137Z,98331.53
2019-04-05T07:05:32.156Z,98332.25
2019-04-05T07:08:04.072Z,98332.72
2019-04-05T07:10:35.235Z,98332.19
2019-04-05T07:13:07.349Z,98331.56
2019-04-05T07:15:37.699Z,98325.34
2019-04-05T07:18:08.172Z,98315.37
2019-04-05T07:20:40.142Z,98327.42
2019-04-05T07:23:13.292Z,98319.36
2019-04-05T07:25:46.120Z,98317.19
2019-04-05T07:28:17.189Z,98318.21
2019-04-05T07:30:49.113Z,98319.95
2019-04-05T07:33:20.221Z,98327.27
2019-04-05T07:35:50.582Z,98326.19
2019-04-05T07:38:22.326Z,98322.42
2019-04-05T07:40:55.260Z,98324.45
2019-04-05T07:43:26.187Z,98322.45
2019-04-05T07:45:58.250Z,98313.38
2019-04-05T07:48:43.746Z,98313.53
2019-04-05T07:51:06.342Z,98311.80
2019-04-05T07:53:36.924Z,98315.11
2019-04-05T07:56:07.371Z,98309.80
2019-04-05T07:58:39.404Z,98313.08
2019-04-05T08:01:11.813Z,98321.04
2019-04-05T08:03:43.582Z,98320.84
2019-04-05T08:06:16.924Z,98321.94
2019-04-05T08:09:08.047Z,98327.45
2019-04-05T08:11:43.336Z,98328.80
2019-04-05T08:14:18.199Z,98333.53
2019-04-05T08:16:49.518Z,98339.33
2019-04-05T08:19:21.322Z,98340.40
2019-04-05T08:21:52.428Z,98339.63
2019-04-05T08:24:23.525Z,98345.42
2019-04-05T08:26:55.548Z,98345.81
2019-04-05T08:29:28.535Z,98346.45
2019-04-05T08:32:13.642Z,98339.93
2019-04-05T08:34:33.536Z,98335.00
2019-04-05T08:37:04.552Z,98334.85
2019-04-05T08:39:36.940Z,98340.28
2019-04-05T08:42:10.829Z,98334.55
2019-04-05T08:44:43.532Z,98334.75
2019-04-05T08:47:15.498Z,98331.48
2019-04-05T08:49:46.571Z,98322.16
2019-04-05T08:52:19.512Z,98322.13
2019-04-05T08:54:50.815Z,98322.68
2019-04-05T08:57:22.648Z,98320.57
2019-04-05T08:59:53.725Z,98316.78
2019-04-05T09:02:25.656Z,98319.19
2019-04-05T09:04:58.634Z,98311.45
2019-04-05T09:07:31.937Z,98310.60
2019-04-05T09:10:04.696Z,98307.45
2019-04-05T09:12:36.959Z,98303.88
2019-04-05T09:15:07.708Z,98303.03
2019-04-05T09:17:40.727Z,98313.36
2019-04-05T09:20:13.798Z,98309.66
2019-04-05T09:22:45.949Z,98301.64
2019-04-05T09:25:19.622Z,98304.92
2019-04-05T09:27:49.808Z,98301.13
2019-04-05T09:30:23.398Z,98308.99
2019-04-05T09:32:55.770Z,98305.95
2019-04-05T09:35:26.679Z,98304.47
2019-04-05T09:37:57.804Z,98305.48
2019-04-05T09:40:30.831Z,98297.88
2019-04-05T09:43:02.766Z,98299.64
2019-04-05T09:45:33.808Z,98300.94
2019-04-05T09:48:05.998Z,98290.67
2019-04-05T09:50:36.978Z,98289.34
2019-04-05T09:53:08.924Z,98287.01
2019-04-05T09:55:40.861Z,98293.69
2019-04-05T09:58:14.011Z,98298.66
2019-04-05T10:00:44.896Z,98294.86
2019-04-05T10:03:17.163Z,98294.70
2019-04-05T10:05:50.041Z,98296.58
2019-04-05T10:08:21.930Z,98291.05
2019-04-05T10:10:53.990Z,98298.68
2019-04-05T10:13:24.973Z,98302.20
2019-04-05T10:15:55.982Z,98302.79
2019-04-05T10:18:28.145Z,98304.98
2019-04-05T10:20:58.906Z,98308.58
2019-04-05T10:23:30.219Z,98303.07
2019-04-05T10:26:01.098Z,98301.59
2019-04-05T10:28:33.957Z,98302.21
2019-04-05T10:31:06.237Z,98288.91
2019-04-05T10:33:36.996Z,98284.69
2019-04-05T10:36:10.801Z,98282.02
2019-04-05T10:38:44.751Z,98280.25
2019-04-05T10:41:16.099Z,98282.38
2019-04-05T10:43:49.094Z,98278.11
2019-04-05T10:46:22.091Z,98278.45
2019-04-05T10:48:55.054Z,98281.61
2019-04-05T10:51:26.137Z,98290.16
2019-04-05T10:53:58.155Z,98292.48
2019-04-05T10:56:32.827Z,98284.77
2019-04-05T10:59:05.277Z,98278.80
2019-04-05T11:01:37.108Z,98285.44
2019-04-05T11:04:08.125Z,98280.33
2019-04-05T11:06:40.187Z,98273.99
2019-04-05T11:09:13.299Z,98292.38
2019-04-05T11:11:46.214Z,98293.66
2019-04-05T11:14:19.146Z,98282.02
2019-04-05T11:16:58.308Z,98293.13
2019-04-05T11:19:25.283Z,98285.56
2019-04-05T11:21:59.963Z,98281.89
2019-04-05T11:24:31.167Z,98272.80
2019-04-05T11:27:06.707Z,98276.86
2019-04-05T11:29:37.055Z,98264.00
2019-04-05T11:32:07.463Z,98273.84
2019-04-05T11:34:37.822Z,98271.61
2019-04-05T11:37:10.518Z,98272.56
2019-04-05T11:39:43.230Z,98269.84
2019-04-05T11:42:17.149Z,98268.88
2019-04-05T11:44:51.638Z,98261.06
2019-04-05T11:47:25.572Z,98261.58
2019-04-05T11:49:58.884Z,98264.88
2019-04-05T11:52:29.368Z,98272.17
2019-04-05T11:55:04.478Z,98263.72
2019-04-05T11:57:34.476Z,98261.83
2019-04-05T12:00:12.794Z,98262.78
2019-04-05T12:02:49.875Z,98264.64
2019-04-05T12:05:22.555Z,98265.95
2019-04-05T12:08:00.592Z,98266.09
2019-04-05T12:10:32.105Z,98273.78
2019-04-05T12:13:04.491Z,98279.86
2019-04-05T12:15:36.525Z,98275.45
2019-04-05T12:18:09.948Z,98264.69
2019-04-05T12:20:49.107Z,98265.77
2019-04-05T12:23:14.486Z,98268.78
2019-04-05T12:25:47.449Z,98273.52
2019-04-05T12:28:19.608Z,98274.95
2019-04-05T12:30:51.528Z,98275.39
2019-04-05T12:33:22.579Z,98269.30
2019-04-05T12:35:56.665Z,98273.14
2019-04-05T12:38:33.303Z,98272.68
2019-04-05T12:41:05.418Z,98267.02
2019-04-05T12:43:37.969Z,98260.61
2019-04-05T12:46:15.115Z,98266.28
2019-04-05T12:48:46.390Z,98253.41
2019-04-05T12:51:16.650Z,98257.07
2019-04-05T12:53:51.365Z,98245.61
2019-04-05T12:56:24.400Z,98257.21
2019-04-05T12:58:56.608Z,98248.66
2019-04-05T13:01:28.562Z,98246.76
2019-04-05T13:04:01.672Z,98246.27
2019-04-05T13:06:34.774Z,98241.66
2019-04-05T13:09:08.875Z,98244.62
2019-04-05T13:11:40.722Z,98244.05
2019-04-05T13:14:11.269Z,98242.27
2019-04-05T13:16:43.624Z,98245.09
2019-04-05T13:19:14.686Z,98251.39
2019-04-05T13:21:46.743Z,98255.48
2019-04-05T13:24:17.786Z,98256.63
2019-04-05T13:26:49.811Z,98260.12
2019-04-05T13:29:22.981Z,98255.87
2019-04-05T13:31:53.761Z,98261.28
2019-04-05T13:34:26.590Z,98259.74
2019-04-05T13:36:59.290Z,98261.83
2019-04-05T13:39:31.854Z,98277.19
2019-04-05T13:42:05.155Z,98276.94
2019-04-05T13:44:35.995Z,98287.24
2019-04-05T13:47:08.471Z,98295.73
2019-04-05T13:49:41.464Z,98309.56
2019-04-05T13:52:13.972Z,98316.62
2019-04-05T13:54:46.984Z,98320.18
2019-04-05T13:57:17.806Z,98330.08
2019-04-05T13:59:49.996Z,98331.80
2019-04-05T14:02:22.021Z,98344.77
2019-04-05T14:04:54.491Z,98337.58
2019-04-05T14:07:25.352Z,98339.33
2019-04-05T14:09:55.990Z,98346.30
2019-04-05T14:12:26.941Z,98350.94
2019-04-05T14:14:59.038Z,98340.59
2019-04-05T14:17:30.033Z,98361.32
2019-04-05T14:20:03.811Z,98355.47
2019-04-05T14:22:34.974Z,98365.72
2019-04-05T14:25:06.137Z,98364.99
2019-04-05T14:27:37.300Z,98358.02
2019-04-05T14:30:10.243Z,98362.18
2019-04-05T14:32:41.131Z,98355.22
2019-04-05T14:35:12.520Z,98358.69
2019-04-05T14:37:44.177Z,98355.95
2019-04-05T14:40:15.320Z,98351.00
2019-04-05T14:42:47.110Z,98355.42
2019-04-05T14:45:19.282Z,98350.30
2019-04-05T14:47:50.132Z,98335.87
2019-04-05T14:50:25.058Z,98339.20
2019-04-05T14:52:56.212Z,98333.77
2019-04-05T14:55:29.959Z,98341.39
2019-04-05T14:58:06.022Z,98339.05
2019-04-05T15:00:37.386Z,98343.73
2019-04-05T15:03:08.228Z,98350.09
2019-04-05T15:05:41.180Z,98346.95
2019-04-05T15:08:14.364Z,98345.61
2019-04-05T15:10:44.835Z,98357.05
2019-04-05T15:13:19.106Z,98356.86
2019-04-05T15:15:55.871Z,98358.78
2019-04-05T15:18:28.328Z,98351.34
2019-04-05T15:20:58.785Z,98352.60
2019-04-05T15:23:31.325Z,98346.06
2019-04-05T15:26:02.465Z,98350.62
2019-04-05T15:28:35.327Z,98347.17
2019-04-05T15:31:06.352Z,98352.18
2019-04-05T15:33:37.316Z,98348.83
2019-04-05T15:36:10.494Z,98360.25
2019-04-05T15:38:43.607Z,98369.34
2019-04-05T15:41:15.444Z,98373.04
2019-04-05T15:43:46.348Z,98382.21
2019-04-05T15:46:16.779Z,98379.48
2019-04-05T15:48:49.658Z,98380.45
2019-04-05T15:51:24.878Z,98384.05
2019-04-05T15:53:55.536Z,98386.48
2019-04-05T15:56:26.475Z,98387.05
2019-04-05T15:58:58.528Z,98389.77
2019-04-05T16:01:29.475Z,98388.00
2019-04-05T16:04:02.744Z,98387.80
2019-04-05T16:06:35.533Z,98395.25
2019-04-05T16:09:09.153Z,98387.89
2019-04-05T16:11:42.226Z,98387.94
2019-04-05T16:14:13.561Z,98394.77
2019-04-05T16:16:46.558Z,98399.56
2019-04-05T16:19:19.652Z,98387.63
2019-04-05T16:21:52.651Z,98383.46
2019-04-05T16:24:23.283Z,98383.33
2019-04-05T16:26:55.581Z,98374.28
2019-04-05T16:29:28.605Z,98384.72
2019-04-05T16:31:59.674Z,98378.68
2019-04-05T16:34:31.612Z,98385.67
2019-04-05T16:37:04.846Z,98384.98
2019-04-05T16:39:35.884Z,98385.09
2019-04-05T16:42:10.129Z,98381.58
2019-04-05T16:44:40.904Z,98385.72
2019-04-05T16:47:13.786Z,98374.94
2019-04-05T16:49:46.749Z,98369.41
2019-04-05T16:52:17.816Z,98377.42
2019-04-05T16:54:50.703Z,98372.45
2019-04-05T16:57:23.132Z,98379.00
2019-04-05T16:59:55.945Z,98373.55
2019-04-05T17:02:26.775Z,98375.70
2019-04-05T17:04:58.271Z,98367.66
2019-04-05T17:07:29.833Z,98364.08
2019-04-05T17:10:02.884Z,98357.64
2019-04-05T17:12:35.717Z,98368.76
2019-04-05T17:15:08.195Z,98367.08
2019-04-05T17:17:40.753Z,98368.46
2019-04-05T17:20:13.924Z,98360.23
2019-04-05T17:22:57.439Z,98365.31
2019-04-05T17:25:33.396Z,98368.75
2019-04-05T17:28:03.797Z,98361.08
2019-04-05T17:30:36.545Z,98364.63
2019-04-05T17:33:07.370Z,98366.48
2019-04-05T17:35:39.746Z,98371.28
2019-04-05T17:38:12.948Z,98354.34
2019-04-05T17:40:43.492Z,98356.47
2019-04-05T17:43:15.422Z,98373.84
2019-04-05T17:45:48.355Z,98370.44
2019-04-05T17:48:19.773Z,98362.98
2019-04-05T17:50:50.850Z,98358.48
2019-04-05T17:53:22.478Z,98364.48
2019-04-05T17:55:53.079Z,98364.48
2019-04-05T17:58:25.477Z,98372.45
2019-04-05T18:00:58.505Z,98379.55
2019-04-05T18:03:29.925Z,98379.95
2019-04-05T18:06:01.843Z,98370.03
2019-04-05T18:08:33.416Z,98366.84
2019-04-05T18:11:05.618Z,98371.85
2019-04-05T18:13:37.475Z,98383.98
2019-04-05T18:16:08.718Z,98375.93
2019-04-05T18:18:39.562Z,98376.16
2019-04-05T18:21:10.826Z,98375.56
2019-04-05T18:23:42.720Z,98370.08
2019-04-05T18:26:13.611Z,98364.68
2019-04-05T18:28:44.440Z,98372.91
2019-04-05T18:31:17.645Z,98372.09
2019-04-05T18:33:48.301Z,98367.85
2019-04-05T18:36:18.913Z,98362.33
2019-04-05T18:38:49.600Z,98355.11
2019-04-05T18:41:20.160Z,98356.17
2019-04-05T18:43:50.616Z,98348.94
2019-04-05T18:46:21.200Z,98342.20
2019-04-05T18:48:51.662Z,98341.88
2019-04-05T18:51:22.075Z,98339.72
2019-04-05T18:53:52.731Z,98347.55
2019-04-05T18:56:23.516Z,98350.22
2019-04-05T18:58:53.898Z,98347.73
2019-04-05T19:01:24.559Z,98350.61
2019-04-05T19:03:55.025Z,98354.45
2019-04-05T19:06:25.684Z,98350.91
2019-04-05T19:08:56.452Z,98356.64
2019-04-05T19:11:28.492Z,98357.52
2019-04-05T19:14:01.341Z,98354.19
2019-04-05T19:16:33.931Z,98356.84
2019-04-05T19:19:06.813Z,98350.89
2019-04-05T19:21:38.181Z,98350.92
2019-04-05T19:24:10.878Z,98355.67
2019-04-05T19:26:41.953Z,98347.20
2019-04-05T19:29:13.925Z,98352.81
2019-04-05T19:49:38.074Z,98367.66
2019-04-05T19:52:10.998Z,98365.61
2019-04-05T19:54:41.931Z,98364.13
2019-04-05T19:57:15.120Z,98364.52
2019-04-05T19:59:45.595Z,98364.02
2019-04-05T20:02:16.326Z,98359.98
2019-04-05T20:04:48.057Z,98362.66
2019-04-05T20:07:20.137Z,98356.25
2019-04-05T20:09:51.014Z,98359.28
2019-04-05T20:12:22.414Z,98361.84
2019-04-05T20:14:54.124Z,98352.99
2019-04-05T20:17:26.125Z,98358.66
2019-04-05T20:19:56.808Z,98357.38
2019-04-05T20:22:27.242Z,98353.53
2019-04-05T20:24:57.714Z,98358.95
2019-04-05T20:27:28.195Z,98368.34
2019-04-05T20:29:58.974Z,98363.26
2019-04-05T20:32:29.392Z,98355.55
2019-04-05T20:35:00.004Z,98351.64
2019-04-05T20:37:30.670Z,98338.13
2019-04-05T20:40:01.265Z,98345.09
2019-04-05T20:42:31.695Z,98334.05
2019-04-05T20:45:03.265Z,98335.33
2019-04-05T20:47:35.038Z,98334.56
2019-04-05T20:50:06.852Z,98324.94
2019-04-05T20:52:38.179Z,98342.11
2019-04-05T20:55:11.260Z,98344.56
2019-04-05T20:57:43.497Z,98352.97
2019-04-05T21:00:17.347Z,98358.35
2019-04-05T21:02:48.343Z,98356.59
2019-04-05T21:05:25.311Z,98358.70
2019-04-05T21:07:53.039Z,98350.55
2019-04-05T21:10:24.066Z,98356.45
2019-04-05T21:12:55.372Z,98368.36
2019-04-05T21:15:27.239Z,98359.88
2019-04-05T21:17:58.015Z,98368.84
2019-04-05T21:20:29.335Z,98362.41
2019-04-05T21:22:59.861Z,98369.23
2019-04-05T21:25:31.420Z,98371.36
2019-04-05T21:28:02.426Z,98368.63
2019-04-05T21:30:35.488Z,98370.45
2019-04-05T21:33:08.791Z,98367.42
2019-04-05T21:35:39.459Z,98374.66
2019-04-05T21:38:10.396Z,98368.95
2019-04-05T21:40:41.819Z,98366.87
2019-04-05T21:43:14.487Z,98359.67
2019-04-05T21:45:44.939Z,98361.28
2019-04-05T21:48:16.271Z,98356.13
2019-04-05T21:50:48.322Z,98353.90
2019-04-05T21:53:19.663Z,98351.85
2019-04-05T21:55:50.539Z,98353.94
2019-04-05T21:58:23.201Z,98360.47
2019-04-05T22:01:01.460Z,98365.08
2019-04-05T22:03:34.501Z,98363.91
2019-04-05T22:06:05.405Z,98364.86
2019-04-05T22:08:35.991Z,98377.31
2019-04-05T22:11:06.427Z,98374.25
2019-04-05T22:13:36.794Z,98370.81
2019-04-05T22:16:07.273Z,98371.52
2019-04-05T22:18:37.720Z,98366.23
2019-04-05T22:21:08.463Z,98377.79
2019-04-05T22:23:39.062Z,98382.47
2019-04-05T22:26:09.559Z,98379.66
2019-04-05T22:28:40.304Z,98376.91
2019-04-05T22:31:10.709Z,98375.70
2019-04-05T22:33:41.098Z,98380.82
2019-04-05T22:36:11.626Z,98384.76
2019-04-05T22:38:43.881Z,98385.97
2019-04-05T22:41:15.647Z,98381.73
2019-04-05T22:43:50.648Z,98384.02
2019-04-05T22:46:22.770Z,98385.81
2019-04-05T22:48:54.840Z,98378.57
2019-04-05T22:51:25.848Z,98380.69
2019-04-05T22:53:58.026Z,98376.52
2019-04-05T22:56:30.962Z,98377.42
2019-04-05T22:59:01.828Z,98373.28
2019-04-05T23:01:32.468Z,98375.00
2019-04-05T23:04:03.146Z,98371.50
2019-04-05T23:06:33.762Z,98369.05
2019-04-05T23:09:06.616Z,98374.56
2019-04-05T23:11:37.939Z,98375.34
2019-04-05T23:14:11.340Z,98370.73
2019-04-05T23:16:41.795Z,98373.25
2019-04-05T23:19:13.173Z,98380.75
2019-04-05T23:21:45.065Z,98374.03
2019-04-05T23:24:16.974Z,98369.39
2019-04-05T23:26:48.921Z,98374.64
2019-04-05T23:29:19.889Z,98374.14
2019-04-05T23:31:52.032Z,98380.66
2019-04-05T23:34:23.997Z,98381.51
2019-04-05T23:36:54.982Z,98380.83
2019-04-05T23:39:26.113Z,98388.43
2019-04-05T23:41:56.806Z,98382.97
2019-04-05T23:44:27.506Z,98382.88
2019-04-05T23:46:59.661Z,98389.06
2019-04-05T23:49:32.760Z,98381.89
2019-04-05T23:52:04.984Z,98387.13
2019-04-05T23:54:36.002Z,98395.15
2019-04-05T23:57:09.162Z,98381.19
2019-04-05T23:59:41.531Z,98382.56
